Mount Vernon, Missouri
Current Conditions -  °F | °C
As of 11:35 AM on Wednesday 26 Nov 2014 (Local Time) from KHFJ Reporting Station
Broken Clouds Broken Clouds  
Wind Chill:   Ceiling: 4100
Heat Index:   Visibility: 10mi
Dew Point:   Wind: 21mph
Humidity: 57%   Direction: 290°WNW
Pressure: 30.02"   Gusts: 25mph
Location:  37.1°N, 93.82°W
Report Text: KHFJ 261735Z AUTO 29018G22KT 10SM SCT033 BKN041 BKN050 08/00 A3002 RMK AO2
Loading
Personal Weather Stations






























Interactive Weather Map New forecast layout! Learn more

10-Day Weather Forecast

Advertisements
Track Severe Weather on mobile